Impacts TAF Board
For situational awareness. Not to be used for flight planning purposes.
IDs:

KFLG - Flagstaff/Pulliam Ar, AZ, US

Issued at 1120 UTC 30 Oct 2020
Updated at 1634 UTC 30 Oct 2020
Potential Impact None Slight Moderate High
Time1557Z 30/17Z 30/18Z 30/19Z 30/20Z 30/21Z 30/22Z 30/23Z 31/00Z 31/01Z 31/02Z 31/03Z 31/04Z 31/05Z>>
Type OBS PRVL PRVL PRVL PRVL PRVL PRVL PRVL PRVL PRVL PRVL PRVL PRVL PRVL
VIS 10 >6 >6 >6 >6 >6 >6 >6 >6 >6 >6 >6 >6 >6
CIG -- -- -- -- -- -- -- -- -- -- -- -- -- --
Cover CLR FEW FEW FEW SKC SKC SKC SKC SKC SKC SKC SKC SKC SKC
FltCat VFR VFR VFR VFR VFR VFR VFR VFR VFR VFR VFR VFR VFR VFR
WX -- -- -- -- -- -- -- -- -- -- -- -- -- --
WDir 50 VRB VRB VRB 180 180 180 210 210 210 210 210 210 210
WSpd 4 3 3 3 7 7 7 7 7 7 7 7 7 7
WGst -- -- -- -- -- -- -- -- -- -- -- -- -- --
Raw TAF
KFLG 301120Z 3012/3112 VRB03KT P6SM FEW200
  FM302000 18007KT P6SM SKC
  FM302300 21007KT P6SM SKC


Raw METAR
KFLG 301557Z 05004KT 10SM CLR 08/M04 A3032 RMK AO2 SLP234 T00781044
KFLG 301457Z 00000KT 10SM CLR M01/M06 A3030 RMK AO2 SLP246 T10111061 53004
KFLG 301357Z 00000KT 10SM CLR M04/M08 A3029 RMK AO2 SLP246 T10441078

METAR Board
Radar Display
Forecast Discussion
For situational awareness. Not to be used for flight planning purposes.